This is the latest recevied weather packets stored in our database for station/object KFLP. If no packets are shown the sender has not sent any weather packets the latest 10 day(s).
| Time | Temp. | Humidity | Pressure | Rain* | Wind** | Luminosity | Snow |
|---|---|---|---|---|---|---|---|
| 1777985011 | 15.56° C | 93% | 1005.4 hPa | 1.02 mm | - | - | - |
| 1777984407 | 15.56° C | 93% | 1005.4 hPa | 1.02 mm | - | - | - |
| 1777983805 | 15.56° C | 93% | 1005.4 hPa | 1.02 mm | - | - | - |
| 1777983205 | 15.56° C | 93% | 1005.4 hPa | 1.02 mm | - | - | - |
| 1777982610 | 15.56° C | 93% | 1005.4 hPa | 1.02 mm | - | - | - |
| 1777982005 | 15.56° C | 93% | 1006.1 hPa | - | - | - | - |
| 1777981412 | 15.56° C | 100% | 1007.1 hPa | - | - | - | - |
| 1777980809 | 15.56° C | 100% | 1007.1 hPa | - | - | - | - |
| 1777980211 | 15.56° C | 100% | 1007.1 hPa | - | - | - | - |
| 1777979611 | 15.56° C | 100% | 1007.8 hPa | - | - | - | - |
| 1777979010 | 15.56° C | 100% | 1007.8 hPa | - | - | - | - |
| 1777978412 | 15.56° C | 93% | 1006.1 hPa | - | - | - | - |
| 1777977809 | 15.56° C | 93% | 1006.1 hPa | - | - | - | - |
| 1777977209 | 15.56° C | 93% | 1006.1 hPa | - | - | - | - |
| 1777976607 | 15.56° C | 93% | 1006.1 hPa | - | - | - | - |
| 1777976009 | 15.56° C | 93% | 1006.1 hPa | - | - | - | - |
| 1777975408 | 16.67° C | 82% | 1006.8 hPa | - | - | - | - |
| 1777974809 | 16.67° C | 82% | 1006.8 hPa | - | - | - | - |
| 1777974210 | 16.67° C | 82% | 1006.8 hPa | - | - | - | - |
| 1777973609 | 16.67° C | 82% | 1006.8 hPa | - | - | - | - |
| 1777973012 | 16.67° C | 82% | 1006.8 hPa | - | - | - | - |
| 1777972409 | 17.78° C | 77% | 1006.4 hPa | - | - | - | - |
| 1777971811 | 17.78° C | 77% | 1006.4 hPa | - | - | - | - |
| 1777971214 | 20° C | 60% | 1005.4 hPa | - | - | - | - |
| 1777970606 | 20° C | 60% | 1005.4 hPa | - | - | - | - |
* Rain latest hour (hover to see other rain measurements)
** Current wind speed in m/s (hover to see current wind gust speed)